Time;durP1;ratioP1;P1;durP2;ratioP2;P2;SDS_P1;SDS_P2;PMS_P1;PMS_P2;Temp;Humidity;BMP_temperature;BMP_pressure;BME280_temperature;BME280_humidity;BME280_pressure;Samples;Min_cycle;Max_cycle;Signal;HPM_P1;HPM_P2
2023/02/02 00:01:50;;;;;;;14.77;2.38;;;5.00;99.90;;;3.26;100.00;100572.38;5000961;28;20061;-74
2023/02/02 00:04:24;;;;;;;16.90;2.53;;;4.90;99.90;;;3.30;100.00;100583.66;5008227;28;20045;-74
2023/02/02 00:06:50;;;;;;;17.52;2.20;;;4.90;99.90;;;3.29;100.00;100603.53;5002971;28;20038;-74
2023/02/02 00:09:19;;;;;;;17.63;2.70;;;4.90;99.90;;;3.22;100.00;100576.44;5005143;28;20041;-74
2023/02/02 00:11:46;;;;;;;;;;;4.90;99.90;;;3.22;100.00;100597.16;5007528;28;20504;-74
2023/02/02 00:14:13;;;;;;;14.48;2.10;;;4.90;99.90;;;3.24;100.00;100590.59;5008758;28;19925;-75
2023/02/02 00:16:44;;;;;;;14.10;2.83;;;4.90;99.90;;;3.25;100.00;100577.94;4999337;28;20046;-74
2023/02/02 00:19:17;;;;;;;20.50;2.22;;;4.90;99.90;;;3.28;100.00;100589.22;5021242;28;20870;-76
2023/02/02 00:21:44;;;;;;;19.13;2.58;;;4.90;99.90;;;3.26;100.00;100585.88;5000590;28;20045;-73
2023/02/02 00:24:13;;;;;;;12.32;2.15;;;4.90;99.90;;;3.26;100.00;100575.06;4989494;28;20104;-75
2023/02/02 00:26:41;;;;;;;16.75;3.10;;;4.90;99.90;;;3.31;100.00;100588.88;5005199;28;20047;-74
2023/02/02 00:29:13;;;;;;;19.63;2.15;;;4.90;99.90;;;3.35;100.00;100593.94;5006626;28;20036;-74
2023/02/02 00:31:38;;;;;;;15.07;2.50;;;5.00;99.90;;;3.40;100.00;100608.59;5008502;28;20444;-74
2023/02/02 00:34:04;;;;;;;16.80;2.50;;;5.10;99.90;;;3.45;100.00;100605.41;5008618;28;20068;-74
2023/02/02 00:36:30;;;;;;;15.85;2.35;;;5.10;99.90;;;3.39;100.00;100590.72;5007065;28;20068;-75
2023/02/02 00:38:55;;;;;;;15.48;2.20;;;5.10;99.90;;;3.37;100.00;100581.97;5004477;28;20033;-74
2023/02/02 00:41:22;;;;;;;17.73;2.35;;;5.10;99.90;;;3.44;100.00;100593.75;5014549;28;20168;-75
2023/02/02 00:45:14;;;;;;;16.15;2.35;;;5.10;99.90;;;3.42;100.00;100605.72;5003353;28;20042;-74
2023/02/02 00:46:33;;;;;;;12.15;2.42;;;5.10;99.90;;;3.34;100.00;100608.44;4998943;28;20160;-75
2023/02/02 00:48:59;;;;;;;19.33;2.80;;;5.00;99.90;;;3.28;100.00;100591.06;4992753;28;20040;-74
2023/02/02 00:51:25;;;;;;;13.95;2.00;;;5.00;99.90;;;3.28;100.00;100599.16;4999228;28;20402;-74
2023/02/02 00:53:51;;;;;;;12.10;1.80;;;5.00;99.90;;;3.25;100.00;100603.06;5004024;28;20088;-75
2023/02/02 00:56:17;;;;;;;13.98;2.17;;;4.90;99.90;;;3.21;100.00;100603.56;4997901;28;20040;-74
2023/02/02 00:58:42;;;;;;;17.35;2.17;;;4.90;99.90;;;3.23;100.00;100615.00;5020593;28;20030;-74
2023/02/02 01:01:22;;;;;;;17.00;3.10;;;4.90;99.90;;;3.26;100.00;100612.81;4983497;28;20108;-74
2023/02/02 01:03:49;;;;;;;14.43;2.25;;;4.90;99.90;;;3.19;100.00;100613.66;5023340;28;20029;-74
2023/02/02 01:06:16;;;;;;;16.23;2.47;;;4.90;99.90;;;3.16;100.00;100614.84;5006310;28;20026;-74
2023/02/02 01:08:41;;;;;;;19.83;2.92;;;4.90;99.90;;;3.18;100.00;100634.38;4995567;28;20113;-74
2023/02/02 01:11:07;;;;;;;19.77;3.17;;;4.90;99.90;;;3.21;100.00;100634.06;5005728;28;20065;-74
2023/02/02 01:13:34;;;;;;;13.63;2.03;;;4.90;99.90;;;3.26;100.00;100631.69;4999018;28;20064;-74
2023/02/02 01:16:02;;;;;;;13.95;2.40;;;4.90;99.90;;;3.29;100.00;100631.34;5005759;28;20041;-74
2023/02/02 01:18:30;;;;;;;15.10;2.55;;;5.00;99.90;;;3.23;100.00;100606.91;5010956;28;20034;-74
2023/02/02 01:21:02;;;;;;;20.25;1.95;;;4.90;99.90;;;3.17;100.00;100630.84;5025285;28;20037;-74
2023/02/02 01:23:29;;;;;;;16.10;2.25;;;4.90;99.90;;;3.16;100.00;100631.00;5011146;28;20124;-74
2023/02/02 01:25:58;;;;;;;18.23;2.55;;;4.90;99.90;;;3.24;100.00;100625.63;4998858;28;20038;-73
2023/02/02 01:28:25;;;;;;;12.18;2.40;;;4.90;99.90;;;3.19;100.00;100622.63;5006514;28;20030;-74
2023/02/02 01:30:53;;;;;;;13.18;2.20;;;4.90;99.90;;;3.20;100.00;100627.00;4999556;28;20038;-74
2023/02/02 01:33:21;;;;;;;12.48;1.70;;;4.90;99.90;;;3.18;100.00;100634.38;5010857;28;20128;-73
2023/02/02 01:35:53;;;;;;;18.35;2.10;;;4.90;99.90;;;3.14;100.00;100641.97;5010994;28;20045;-74
2023/02/02 01:38:20;;;;;;;12.13;2.53;;;4.80;99.90;;;3.07;100.00;100650.91;4994824;28;20045;-74
2023/02/02 01:40:48;;;;;;;13.80;2.63;;;4.80;99.90;;;3.06;100.00;100642.00;5010949;28;20037;-74
2023/02/02 01:43:25;;;;;;;21.60;3.00;;;4.70;99.90;;;3.05;100.00;100643.00;5008575;28;20044;-74
2023/02/02 01:45:53;;;;;;;18.92;2.13;;;4.70;99.90;;;2.98;100.00;100650.91;5023739;28;20058;-74
2023/02/02 01:48:26;;;;;;;18.90;3.20;;;4.70;99.90;;;3.01;100.00;100644.31;5009731;28;20038;-74
2023/02/02 01:50:59;;;;;;;19.25;2.75;;;4.70;99.90;;;3.09;100.00;100671.31;5010942;28;20026;-75
2023/02/02 01:53:25;;;;;;;16.33;3.00;;;4.70;99.90;;;3.21;100.00;100679.91;5005749;28;20034;-74
2023/02/02 01:55:52;;;;;;;11.13;1.75;;;4.80;99.90;;;3.20;100.00;100661.19;5017010;28;20038;-75
2023/02/02 01:58:27;;;;;;;16.67;2.28;;;4.80;99.90;;;3.19;100.00;100660.38;4997582;28;20548;-74
2023/02/02 02:00:53;;;;;;;13.48;2.08;;;4.90;99.90;;;3.26;100.00;100676.69;5000545;28;20034;-73
2023/02/02 02:03:24;;;;;;;17.58;2.35;;;4.90;99.90;;;3.27;100.00;100662.19;5009921;28;20519;-73
2023/02/02 02:06:02;;;;;;;18.23;2.53;;;4.90;99.90;;;3.34;100.00;100684.81;5007065;28;20087;-73
2023/02/02 02:08:38;;;;;;;13.35;3.25;;;5.00;99.90;;;3.38;100.00;100682.59;5005728;28;20026;-74
2023/02/02 02:11:05;;;;;;;16.70;2.15;;;5.00;99.90;;;3.39;100.00;100670.78;5013781;28;20038;-74
2023/02/02 02:17:10;;;;;;;19.00;2.60;;;5.00;99.90;;;3.44;100.00;100674.69;4992745;28;20042;-73
2023/02/02 02:27:15;;;;;;;12.85;1.90;;;5.20;99.90;;;3.40;100.00;100702.13;5008626;28;20033;-74
2023/02/02 02:30:24;;;;;;;19.92;3.40;;;5.10;99.90;;;3.41;100.00;100688.50;4992687;28;20033;-74
2023/02/02 02:33:06;;;;;;;14.90;2.45;;;5.10;99.90;;;3.39;100.00;100689.66;4998755;28;20485;-74
2023/02/02 02:35:40;;;;;;;17.40;2.40;;;5.00;99.90;;;3.43;100.00;100707.19;5000866;28;20411;-73
2023/02/02 02:38:28;;;;;;;19.35;3.03;;;5.10;99.90;;;3.34;100.00;100694.72;5024633;28;20485;-73
2023/02/02 02:41:02;;;;;;;19.92;2.83;;;5.00;99.90;;;3.40;100.00;100711.09;5009191;28;20038;-73
2023/02/02 02:43:57;;;;;;;12.82;2.35;;;5.10;99.90;;;3.43;100.00;100699.09;5024446;28;20449;-73
2023/02/02 02:46:25;;;;;;;16.25;2.60;;;5.10;99.90;;;3.34;100.00;100714.47;4994936;28;20042;-73
2023/02/02 02:48:51;;;;;;;20.65;2.33;;;5.00;99.90;;;3.30;100.00;100710.41;5008994;28;20096;-74
2023/02/02 02:51:44;;;;;;;17.83;2.42;;;5.00;99.90;;;3.24;100.00;100729.94;5004721;28;20124;-73
2023/02/02 02:54:29;;;;;;;12.45;2.33;;;4.90;99.90;;;3.22;100.00;100732.81;5008117;28;20621;-73
2023/02/02 02:57:52;;;;;;;15.07;2.13;;;4.90;99.90;;;3.33;100.00;100722.72;5002824;28;20045;-73
2023/02/02 03:00:54;;;;;;;15.40;2.15;;;4.90;99.90;;;3.14;100.00;100722.00;5009993;28;20549;-73
2023/02/02 03:04:15;;;;;;;14.95;2.08;;;4.90;99.90;;;3.12;100.00;100732.13;5019264;28;20044;-73
2023/02/02 03:06:53;;;;;;;13.55;2.22;;;4.80;99.90;;;3.00;100.00;100735.13;5008600;28;20040;-74
2023/02/02 03:09:28;;;;;;;;;;;4.70;99.90;;;2.92;100.00;100735.13;5008968;28;20151;-73
2023/02/02 03:11:55;;;;;;;15.25;2.20;;;4.60;99.90;;;2.86;100.00;100730.38;5009102;28;20020;-75
2023/02/02 03:14:21;;;;;;;14.18;2.17;;;4.50;99.90;;;2.78;100.00;100741.97;5006110;28;20046;-74
2023/02/02 03:16:51;;;;;;;21.65;2.95;;;4.50;99.90;;;2.88;100.00;100728.34;5009354;28;20044;-73
2023/02/02 03:19:17;;;;;;;21.17;2.53;;;4.50;99.90;;;2.77;100.00;100745.66;5009770;28;20111;-74
2023/02/02 03:21:43;;;;;;;17.80;2.00;;;4.50;99.90;;;2.78;100.00;100750.03;4995067;28;20452;-74
2023/02/02 03:24:09;;;;;;;13.10;2.10;;;4.50;99.90;;;2.73;100.00;100730.84;5003870;28;20038;-74
2023/02/02 03:26:36;;;;;;;20.17;3.38;;;4.40;99.90;;;2.75;100.00;100747.69;5009380;28;20030;-74
2023/02/02 03:29:02;;;;;;;15.15;3.08;;;4.40;99.90;;;2.76;100.00;100743.16;4997722;28;20560;-74
2023/02/02 03:31:28;;;;;;;17.48;2.08;;;4.40;99.90;;;2.69;100.00;100741.09;5008589;28;20037;-74
2023/02/02 03:33:55;;;;;;;15.68;3.00;;;4.40;99.90;;;2.83;100.00;100746.88;5007332;28;20493;-74
2023/02/02 03:36:21;;;;;;;15.90;2.10;;;4.50;99.90;;;2.82;100.00;100754.13;5004886;28;20041;-74
2023/02/02 03:38:46;;;;;;;18.05;2.65;;;4.50;99.90;;;2.83;100.00;100754.94;5000060;28;20066;-74
2023/02/02 03:41:12;;;;;;;15.38;2.63;;;4.50;99.90;;;2.77;100.00;100756.44;5003598;28;20038;-74
2023/02/02 03:43:38;;;;;;;14.93;2.60;;;4.50;99.90;;;2.85;100.00;100739.47;5007615;28;20030;-73
2023/02/02 03:46:05;;;;;;;18.88;2.50;;;4.50;99.90;;;2.83;100.00;100752.25;5000725;28;20410;-74
2023/02/02 03:48:37;;;;;;;17.65;3.20;;;4.50;99.90;;;2.73;100.00;100747.84;5010291;28;20080;-74
2023/02/02 03:51:13;;;;;;;19.13;2.05;;;4.40;99.90;;;2.82;100.00;100761.34;5008318;28;20049;-74
2023/02/02 03:53:46;;;;;;;16.90;2.33;;;4.50;99.90;;;2.85;100.00;100766.41;5003776;28;20034;-74
2023/02/02 03:56:12;;;;;;;21.77;2.58;;;4.50;99.90;;;2.86;100.00;100763.56;4999160;28;20095;-74
2023/02/02 03:58:38;;;;;;;15.10;1.88;;;4.50;99.90;;;2.81;100.00;100759.66;5002819;28;20049;-74
2023/02/02 04:01:07;;;;;;;11.98;2.25;;;4.50;99.90;;;2.80;100.00;100774.16;5003750;28;20038;-74
2023/02/02 04:03:33;;;;;;;14.27;2.13;;;4.50;99.90;;;2.73;100.00;100777.50;5002225;28;20030;-75
2023/02/02 04:05:59;;;;;;;15.68;2.28;;;4.40;99.90;;;2.73;100.00;100773.94;5007995;28;20034;-74
2023/02/02 04:08:25;;;;;;;12.80;2.58;;;4.40;99.90;;;2.70;100.00;100777.81;5008074;28;20117;-74
2023/02/02 04:10:50;;;;;;;16.38;3.20;;;4.40;99.90;;;2.80;100.00;100795.69;5023666;28;20499;-73
2023/02/02 04:13:16;;;;;;;17.52;2.92;;;4.50;99.90;;;2.69;100.00;100786.91;4999562;28;20042;-74
2023/02/02 04:15:42;;;;;;;18.30;2.70;;;4.40;99.90;;;2.72;100.00;100783.03;4994419;28;20046;-74
2023/02/02 04:18:08;;;;;;;12.57;2.30;;;4.40;99.90;;;2.76;100.00;100789.78;5003393;28;20042;-74
2023/02/02 04:20:33;;;;;;;21.58;2.65;;;4.40;99.90;;;2.87;100.00;100810.22;5017337;28;20045;-73
2023/02/02 04:22:59;;;;;;;16.30;3.05;;;4.50;99.90;;;2.93;100.00;100806.03;5007701;28;20034;-73
2023/02/02 04:25:25;;;;;;;16.75;2.85;;;4.60;99.90;;;2.94;100.00;100802.31;5009395;28;20037;-74
2023/02/02 04:27:50;;;;;;;20.48;2.40;;;4.60;99.90;;;2.91;100.00;100813.44;4995552;28;20391;-73
2023/02/02 04:30:18;;;;;;;17.05;2.45;;;4.60;99.90;;;2.76;100.00;100810.50;5007106;28;20045;-74
2023/02/02 04:32:44;;;;;;;20.13;3.28;;;4.50;99.90;;;2.80;100.00;100811.88;4998056;28;20034;-73
2023/02/02 04:35:10;;;;;;;18.15;3.75;;;4.40;99.90;;;2.67;100.00;100815.88;5007996;28;20127;-75
2023/02/02 04:37:36;;;;;;;16.38;2.70;;;4.40;99.90;;;2.72;100.00;100824.31;5009041;28;20420;-75
2023/02/02 04:40:01;;;;;;;16.45;3.30;;;4.40;99.90;;;2.80;100.00;100839.69;5011626;28;20042;-75
2023/02/02 04:42:28;;;;;;;17.20;2.58;;;4.50;99.90;;;2.72;100.00;100823.44;5012956;28;20030;-74
2023/02/02 04:44:53;;;;;;;19.27;2.40;;;4.40;99.90;;;2.60;100.00;100812.09;5010316;28;20122;-74
2023/02/02 04:47:19;;;;;;;17.70;3.03;;;4.30;99.90;;;2.67;100.00;100823.94;5026066;28;20038;-74
2023/02/02 04:49:45;;;;;;;16.80;2.60;;;4.30;99.90;;;2.59;100.00;100823.88;4997679;28;20030;-73
2023/02/02 04:52:11;;;;;;;17.45;3.08;;;4.30;99.90;;;2.51;100.00;100830.06;5011065;28;20501;-74
2023/02/02 04:54:36;;;;;;;22.20;3.10;;;4.20;99.90;;;2.37;100.00;100823.41;5011945;28;20030;-73
2023/02/02 04:57:02;;;;;;;17.50;2.42;;;4.10;99.90;;;2.34;100.00;100828.28;5018417;28;20049;-74
2023/02/02 04:59:28;;;;;;;24.23;3.00;;;4.00;99.90;;;2.40;100.00;100833.03;4994145;28;20042;-73
2023/02/02 05:01:59;;;;;;;17.00;2.55;;;4.10;99.90;;;2.35;100.00;100825.44;5004665;28;20038;-74
2023/02/02 05:04:25;;;;;;;16.95;2.35;;;4.00;99.90;;;2.38;100.00;100822.41;5010324;28;20038;-73
2023/02/02 05:06:51;;;;;;;19.58;2.28;;;4.00;99.90;;;2.32;100.00;100817.66;5009756;28;20034;-74
2023/02/02 05:09:17;;;;;;;19.27;3.33;;;4.00;99.90;;;2.37;100.00;100828.81;5011696;28;20048;-73
2023/02/02 05:11:43;;;;;;;28.80;4.10;;;4.00;99.90;;;2.48;100.00;100840.31;5011539;28;20104;-73
2023/02/02 05:14:10;;;;;;;17.92;2.30;;;4.10;99.90;;;2.35;100.00;100840.75;5011561;28;20050;-73
2023/02/02 05:16:35;;;;;;;21.25;3.05;;;4.10;99.90;;;2.37;100.00;100828.81;5005593;28;20118;-73
2023/02/02 05:19:01;;;;;;;22.92;2.25;;;4.10;99.90;;;2.33;100.00;100826.59;5008257;28;20046;-74
2023/02/02 05:21:27;;;;;;;24.83;3.95;;;4.00;99.90;;;2.24;100.00;100834.59;5008068;28;20113;-73
2023/02/02 05:23:53;;;;;;;24.05;3.90;;;3.90;99.90;;;2.32;100.00;100824.91;5010102;28;20045;-74
2023/02/02 05:26:23;;;;;;;19.48;2.63;;;4.00;99.90;;;2.24;100.00;100836.47;5008365;28;20100;-73
2023/02/02 05:28:49;;;;;;;17.77;2.70;;;3.90;99.90;;;2.30;100.00;100839.38;5004435;28;20539;-75
2023/02/02 05:31:15;;;;;;;23.77;2.85;;;3.90;99.90;;;2.29;100.00;100837.69;5011438;28;20073;-72
2023/02/02 05:33:41;;;;;;;18.10;2.50;;;4.00;99.90;;;2.29;100.00;100831.44;5010356;28;20040;-72
2023/02/02 05:36:07;;;;;;;14.27;2.67;;;4.00;99.90;;;2.20;100.00;100838.63;5010150;28;20030;-72
2023/02/02 05:38:33;;;;;;;19.25;3.42;;;3.90;99.90;;;2.34;100.00;100850.66;4982269;28;20042;-72
2023/02/02 05:40:59;;;;;;;21.60;2.53;;;4.00;99.90;;;2.28;100.00;100849.47;5007315;28;20080;-73
2023/02/02 05:43:27;;;;;;;22.25;3.72;;;4.00;99.90;;;2.31;100.00;100845.59;4999711;28;20038;-73
2023/02/02 05:45:53;;;;;;;16.08;2.05;;;4.00;99.90;;;2.37;100.00;100842.25;5006249;28;20057;-72
2023/02/02 05:48:19;;;;;;;20.75;2.80;;;4.00;99.90;;;2.44;100.00;100855.94;5005036;28;20038;-72
2023/02/02 05:51:05;;;;;;;16.98;2.53;;;4.10;99.90;;;2.42;100.00;100853.44;5000627;28;20050;-72
2023/02/02 05:53:31;;;;;;;24.48;2.63;;;4.10;99.90;;;2.43;100.00;100870.41;5007603;28;20083;-73
2023/02/02 05:55:58;;;;;;;28.38;3.22;;;4.10;99.90;;;2.62;100.00;100869.34;5011028;28;20445;-73
2023/02/02 05:58:24;;;;;;;15.88;2.97;;;4.30;99.90;;;2.55;100.00;100866.47;5012260;28;20025;-74
2023/02/02 06:00:51;;;;;;;22.15;3.22;;;4.30;99.90;;;2.67;100.00;100872.44;5010435;28;20084;-73
2023/02/02 06:03:16;;;;;;;23.88;3.45;;;4.30;99.90;;;2.63;100.00;100872.91;5011090;28;20434;-73
2023/02/02 06:05:42;;;;;;;19.02;2.42;;;4.30;99.90;;;2.58;100.00;100873.38;5010621;28;20044;-73
2023/02/02 06:08:08;;;;;;;19.42;2.72;;;4.30;99.90;;;2.56;100.00;100876.25;5025236;28;20037;-73
2023/02/02 06:10:34;;;;;;;17.25;2.08;;;4.30;99.90;;;2.50;100.00;100865.25;5010772;28;20033;-73
2023/02/02 06:13:05;;;;;;;22.23;2.80;;;4.20;99.90;;;2.58;100.00;100876.06;4996035;28;20061;-73
2023/02/02 06:15:31;;;;;;;18.63;3.67;;;4.20;99.90;;;2.61;100.00;100877.63;5023550;28;20446;-73
2023/02/02 06:17:57;;;;;;;19.52;3.10;;;4.30;99.90;;;2.58;100.00;100873.38;5010232;28;20432;-72
2023/02/02 06:20:23;;;;;;;23.30;2.97;;;4.30;99.90;;;2.55;100.00;100879.94;5010231;28;20093;-72
2023/02/02 06:22:49;;;;;;;19.23;2.50;;;4.30;99.90;;;2.55;100.00;100890.72;5002577;28;20069;-73
2023/02/02 06:25:15;;;;;;;17.08;2.30;;;4.20;99.90;;;2.56;100.00;100876.25;5011380;28;20034;-73
2023/02/02 06:27:40;;;;;;;18.15;3.03;;;4.30;99.90;;;2.56;100.00;100889.72;5009153;28;20485;-72
2023/02/02 06:30:10;;;;;;;20.85;2.65;;;4.20;99.90;;;2.58;100.00;100893.09;5010403;28;20049;-73
2023/02/02 06:32:35;;;;;;;11.27;2.35;;;4.30;99.90;;;2.64;100.00;100893.47;4998820;28;20035;-72
2023/02/02 06:35:01;;;;;;;18.85;2.40;;;4.30;99.90;;;2.62;100.00;100896.28;5005944;28;20513;-73
2023/02/02 06:37:27;;;;;;;21.35;3.30;;;4.30;99.90;;;2.58;100.00;100898.47;5008894;28;20046;-75
2023/02/02 06:39:53;;;;;;;22.15;2.47;;;4.30;99.90;;;2.58;100.00;100900.31;5009864;28;20091;-73
2023/02/02 06:42:18;;;;;;;21.00;2.97;;;4.30;99.90;;;2.59;100.00;100915.47;4999302;28;20047;-72
2023/02/02 06:44:44;;;;;;;25.92;3.20;;;4.30;99.90;;;2.71;100.00;100916.91;5004709;28;20060;-72
2023/02/02 06:47:10;;;;;;;20.58;2.70;;;4.40;99.90;;;2.69;100.00;100916.22;5008683;28;20401;-72
2023/02/02 06:49:35;;;;;;;15.90;2.65;;;4.40;99.90;;;2.66;100.00;100921.09;5010267;28;20029;-74
2023/02/02 06:52:01;;;;;;;24.05;3.05;;;4.30;99.90;;;2.72;100.00;100921.31;4998834;28;20109;-73
2023/02/02 06:54:27;;;;;;;18.23;2.85;;;4.40;99.90;;;2.68;100.00;100925.31;5009291;28;20030;-72
2023/02/02 06:56:54;;;;;;;16.30;2.95;;;4.40;99.90;;;2.64;100.00;100915.00;5009914;28;20049;-73
2023/02/02 06:59:19;;;;;;;23.92;3.25;;;4.30;99.90;;;2.58;100.00;100917.34;5009505;28;20547;-73
2023/02/02 07:01:48;;;;;;;19.05;2.53;;;4.30;99.90;;;2.62;100.00;100928.63;5009415;28;20054;-73
2023/02/02 07:04:16;;;;;;;22.25;3.60;;;4.30;99.90;;;2.61;100.00;100926.09;5005681;28;20384;-74
2023/02/02 07:06:41;;;;;;;16.70;2.30;;;4.30;99.90;;;2.67;100.00;100937.09;5008287;28;20428;-73
2023/02/02 07:09:07;;;;;;;17.27;2.88;;;4.30;99.90;;;2.63;100.00;100933.00;5009572;28;20038;-73
2023/02/02 07:11:35;;;;;;;22.65;3.33;;;4.30;99.90;;;2.71;100.00;100933.09;5009719;28;20038;-73
2023/02/02 07:14:02;;;;;;;24.83;3.47;;;4.40;99.90;;;2.79;100.00;100947.59;5008830;28;20436;-73
2023/02/02 07:16:28;;;;;;;18.25;2.60;;;4.40;99.90;;;2.84;100.00;100947.97;5010598;28;20088;-73
2023/02/02 07:18:54;;;;;;;21.38;3.15;;;4.50;99.90;;;2.79;100.00;100950.31;5008091;28;20045;-72
2023/02/02 07:21:23;;;;;;;24.83;3.75;;;4.50;99.90;;;2.83;100.00;100946.28;5009176;28;20493;-73
2023/02/02 07:23:50;;;;;;;22.98;3.03;;;4.50;99.90;;;2.81;100.00;100949.16;5009388;28;20046;-74
2023/02/02 07:26:18;;;;;;;19.75;3.20;;;4.50;99.90;;;2.82;100.00;100960.75;5007900;28;20959;-72
2023/02/02 07:28:43;;;;;;;;;;;4.50;99.90;;;2.92;100.00;100958.81;4997316;28;20034;-72
2023/02/02 07:31:16;;;;;;;16.10;3.03;;;4.60;99.90;;;2.97;100.00;100959.19;5000849;28;20285;-73
2023/02/02 07:33:44;;;;;;;16.13;3.20;;;4.60;99.90;;;2.94;100.00;100958.66;5008837;28;20095;-74
2023/02/02 07:36:13;;;;;;;19.17;3.60;;;4.60;99.90;;;2.90;100.00;100963.50;5006128;28;20449;-74
2023/02/02 07:38:38;;;;;;;21.13;3.28;;;4.60;99.90;;;2.92;100.00;100966.06;5009355;28;20295;-73
2023/02/02 07:41:04;;;;;;;19.40;2.92;;;4.60;99.90;;;2.87;100.00;100963.81;5006754;28;20045;-72
2023/02/02 07:43:30;;;;;;;17.75;2.70;;;4.50;99.90;;;2.94;100.00;100958.66;5009862;28;20045;-73
2023/02/02 07:46:07;;;;;;;23.88;2.83;;;4.60;99.90;;;2.92;100.00;100966.91;5022995;28;20077;-73
2023/02/02 07:48:33;;;;;;;16.88;2.60;;;4.60;99.90;;;2.91;100.00;100975.97;5008239;28;20046;-73
2023/02/02 07:51:02;;;;;;;13.55;2.40;;;4.60;99.90;;;2.94;100.00;100970.28;5002806;28;20061;-73
2023/02/02 07:53:28;;;;;;;17.92;2.50;;;4.60;99.90;;;2.96;100.00;100976.38;5005008;28;20042;-73
2023/02/02 07:56:14;;;;;;;10.23;2.70;;;4.60;99.90;;;2.98;100.00;100974.34;5002187;28;20135;-73
2023/02/02 07:58:41;;;;;;;16.73;2.78;;;4.60;99.90;;;2.97;100.00;100974.50;4998771;28;20053;-73
2023/02/02 08:01:11;;;;;;;23.00;3.20;;;4.60;99.90;;;2.98;100.00;100971.66;5009708;28;20045;-73
2023/02/02 08:03:38;;;;;;;21.90;2.83;;;4.60;99.90;;;2.99;100.00;100976.06;5004407;28;20030;-73
2023/02/02 08:06:18;;;;;;;23.08;2.63;;;4.60;99.90;;;3.05;100.00;100977.28;5021735;28;20076;-72
2023/02/02 08:08:43;;;;;;;17.02;3.20;;;4.70;99.90;;;3.08;100.00;100976.94;5008832;28;20038;-73
2023/02/02 08:11:12;;;;;;;19.80;3.15;;;4.70;99.90;;;3.11;100.00;100982.03;5008786;28;20037;-73
2023/02/02 08:13:39;;;;;;;16.00;2.85;;;4.80;99.90;;;3.10;100.00;100985.72;5004954;28;20502;-73
2023/02/02 08:16:06;;;;;;;13.10;2.55;;;4.80;99.90;;;3.15;100.00;100994.16;5001980;28;20069;-71
2023/02/02 08:18:34;;;;;;;22.80;3.92;;;4.80;99.90;;;3.17;100.00;100996.69;5007381;28;20034;-71
2023/02/02 08:21:01;;;;;;;19.65;3.28;;;4.80;99.90;;;3.20;100.00;101007.19;5007389;28;20085;-71
2023/02/02 08:23:27;;;;;;;18.67;3.13;;;4.80;99.90;;;3.21;100.00;101013.41;5008683;28;20042;-72
2023/02/02 08:25:54;;;;;;;21.23;2.78;;;4.90;99.90;;;3.22;100.00;101010.56;5007472;28;20057;-74
2023/02/02 08:28:20;;;;;;;22.65;3.28;;;4.90;99.90;;;3.24;100.00;101008.56;5009881;28;20029;-73
2023/02/02 08:30:46;;;;;;;20.23;3.33;;;4.90;99.90;;;3.27;100.00;101013.63;5007414;28;20493;-74
2023/02/02 08:33:12;;;;;;;21.00;3.10;;;4.90;99.90;;;3.29;100.00;101017.00;5008730;28;20034;-74
2023/02/02 08:35:43;;;;;;;16.80;3.38;;;5.00;99.90;;;3.31;100.00;101022.22;5008493;28;20045;-74
2023/02/02 08:38:09;;;;;;;20.27;3.13;;;5.00;99.90;;;3.42;100.00;101021.09;5008581;28;20513;-74
2023/02/02 08:40:35;;;;;;;21.52;3.47;;;5.10;99.90;;;3.51;100.00;101035.50;4996875;28;20052;-74
2023/02/02 08:43:02;;;;;;;20.75;3.10;;;5.10;99.90;;;3.52;100.00;101035.34;5004070;28;20034;-73
2023/02/02 08:45:28;;;;;;;16.20;3.08;;;5.20;99.90;;;3.52;100.00;101035.34;5007141;28;20065;-73
2023/02/02 08:47:54;;;;;;;13.20;3.35;;;5.20;99.90;;;3.57;100.00;101037.53;5008359;28;20072;-73
2023/02/02 08:50:19;;;;;;;17.33;3.83;;;5.30;99.90;;;3.66;100.00;101039.28;5021366;28;20072;-73
2023/02/02 08:52:45;;;;;;;19.33;2.97;;;5.30;99.90;;;3.74;100.00;101035.78;4998866;28;20103;-73
2023/02/02 08:55:11;;;;;;;15.95;3.13;;;5.40;99.90;;;3.82;100.00;101043.91;4998788;28;20045;-73
2023/02/02 08:57:36;;;;;;;16.40;3.00;;;5.50;99.90;;;3.83;100.00;101045.59;5008293;28;20125;-73
2023/02/02 09:00:05;;;;;;;23.42;3.10;;;5.50;99.90;;;3.89;100.00;101050.34;5008388;28;20056;-73
2023/02/02 09:02:31;;;;;;;19.90;4.25;;;5.60;99.90;;;3.83;100.00;101056.38;5007140;28;20113;-73
2023/02/02 09:04:57;;;;;;;15.82;2.92;;;5.60;99.90;;;3.89;100.00;101052.22;5008316;28;20130;-73
2023/02/02 09:07:23;;;;;;;18.75;3.42;;;5.60;99.90;;;3.89;100.00;101053.03;5022194;28;20042;-74
2023/02/02 09:09:50;;;;;;;14.82;3.20;;;5.60;99.90;;;3.93;100.00;101058.09;5001746;28;20088;-73
2023/02/02 09:12:16;;;;;;;12.63;3.45;;;5.60;99.90;;;3.92;100.00;101057.28;5009335;28;20042;-73
2023/02/02 09:14:42;;;;;;;20.25;3.30;;;5.60;99.90;;;3.97;100.00;101057.63;5006931;28;20403;-73
2023/02/02 09:17:07;;;;;;;13.85;3.20;;;5.70;99.90;;;4.05;100.00;101066.75;5007479;28;20034;-73
2023/02/02 09:19:33;;;;;;;16.02;2.97;;;5.70;99.90;;;4.24;100.00;101069.19;4982875;28;20493;-73
2023/02/02 09:21:59;;;;;;;17.13;2.67;;;5.80;99.90;;;4.27;100.00;101073.44;5007355;28;20056;-74
2023/02/02 09:24:24;;;;;;;14.65;3.03;;;5.90;99.90;;;4.24;100.00;101073.72;5001579;28;20082;-73
2023/02/02 09:26:50;;;;;;;12.10;2.90;;;5.90;99.90;;;4.23;100.00;101085.53;5001905;28;20042;-74
2023/02/02 09:29:16;;;;;;;20.95;3.22;;;5.90;99.90;;;4.31;100.00;101089.13;5010535;28;20041;-73
2023/02/02 09:31:43;;;;;;;12.68;2.60;;;6.00;99.90;;;4.31;100.00;101096.38;5011287;28;20041;-72
2023/02/02 09:34:14;;;;;;;11.30;1.95;;;6.10;99.90;;;4.33;100.00;101091.66;5017769;28;20397;-73
2023/02/02 09:36:41;;;;;;;11.15;2.20;;;6.10;99.90;;;4.34;100.00;101101.47;5007608;28;20370;-72
2023/02/02 09:39:11;;;;;;;9.90;2.15;;;6.10;99.90;;;4.31;100.00;101108.03;5011442;28;20531;-72
2023/02/02 09:41:37;;;;;;;17.50;2.60;;;6.00;99.90;;;4.21;100.00;101107.34;4997069;28;20038;-73
2023/02/02 09:44:37;;;;;;;11.45;2.00;;;6.00;99.90;;;4.27;100.00;101109.38;5003316;28;20042;-73
2023/02/02 09:47:33;;;;;;;13.63;2.28;;;6.00;99.90;;;4.36;100.00;101114.78;4998604;28;20037;-74
2023/02/02 09:50:17;;;;;;;7.53;1.90;;;6.00;99.90;;;4.44;100.00;101110.25;4994194;28;20042;-73
2023/02/02 09:52:56;;;;;;;13.88;2.33;;;6.10;99.90;;;4.56;100.00;101113.50;5007439;28;20559;-74
2023/02/02 09:55:45;;;;;;;12.57;2.22;;;6.20;99.90;;;4.70;100.00;101122.81;5003427;28;20044;-73
2023/02/02 09:58:50;;;;;;;12.98;2.03;;;6.40;99.90;;;4.85;100.00;101135.69;5004688;28;20528;-73
2023/02/02 10:01:23;;;;;;;13.90;2.38;;;6.60;99.90;;;4.75;100.00;101138.53;5009411;28;20099;-72
2023/02/02 10:04:03;;;;;;;13.10;2.13;;;6.50;99.90;;;4.87;100.00;101139.91;5025352;28;20046;-72
2023/02/02 10:06:42;;;;;;;9.80;1.83;;;6.60;99.90;;;4.86;100.00;101149.03;5009933;28;20042;-72
2023/02/02 10:09:43;;;;;;;10.73;2.03;;;6.60;99.90;;;4.82;100.00;101142.25;5010687;28;20069;-72
2023/02/02 10:12:32;;;;;;;9.52;2.13;;;6.60;99.90;;;4.88;100.00;101138.88;5003068;28;20081;-73
2023/02/02 10:15:33;;;;;;;12.05;1.80;;;6.60;99.90;;;4.99;100.00;101142.28;4997406;28;20077;-73
2023/02/02 10:18:27;;;;;;;14.13;2.45;;;6.70;99.90;;;4.90;100.00;101149.53;5021427;28;20046;-73
2023/02/02 10:21:01;;;;;;;14.63;2.28;;;6.70;99.90;;;5.07;100.00;101160.38;4993385;28;20049;-72
2023/02/02 10:23:49;;;;;;;12.02;1.98;;;6.70;99.90;;;5.10;100.00;101157.34;5020422;28;20052;-73
2023/02/02 10:26:38;;;;;;;15.75;2.17;;;6.80;99.90;;;5.05;100.00;101155.13;4993775;28;20041;-74
2023/02/02 10:29:30;;;;;;;11.35;2.00;;;6.80;99.90;;;5.02;100.00;101161.72;5005731;28;20038;-71
2023/02/02 10:32:13;;;;;;;10.52;2.42;;;6.70;99.90;;;5.15;100.00;101161.22;5008778;28;20473;-73
2023/02/02 10:34:40;;;;;;;10.57;2.30;;;6.80;99.90;;;5.17;100.00;101167.34;5003847;28;20108;-73
2023/02/02 10:37:21;;;;;;;14.97;2.73;;;6.80;99.90;;;5.37;100.00;101166.16;5009824;28;20114;-74